sensor_id;sensor_type;location;lat;lon;timestamp;P1;durP1;ratioP1;P2;durP2;ratioP2
29412;SDS011;16389;50.126;8.450;2023-02-01T00:00:00;3.75;;;2.50;;
29412;SDS011;16389;50.126;8.450;2023-02-01T00:02:25;4.70;;;2.65;;
29412;SDS011;16389;50.126;8.450;2023-02-01T00:04:51;3.45;;;2.78;;
29412;SDS011;16389;50.126;8.450;2023-02-01T00:07:16;4.00;;;2.42;;
29412;SDS011;16389;50.126;8.450;2023-02-01T00:09:42;3.08;;;2.50;;
29412;SDS011;16389;50.126;8.450;2023-02-01T00:12:07;3.40;;;2.78;;
29412;SDS011;16389;50.126;8.450;2023-02-01T00:14:33;5.10;;;2.92;;
29412;SDS011;16389;50.126;8.450;2023-02-01T00:17:03;3.50;;;2.60;;
29412;SDS011;16389;50.126;8.450;2023-02-01T00:19:31;4.47;;;3.00;;
29412;SDS011;16389;50.126;8.450;2023-02-01T00:21:56;6.78;;;2.55;;
29412;SDS011;16389;50.126;8.450;2023-02-01T00:24:22;2.92;;;2.33;;
29412;SDS011;16389;50.126;8.450;2023-02-01T00:26:47;3.33;;;2.47;;
29412;SDS011;16389;50.126;8.450;2023-02-01T00:29:15;4.57;;;3.22;;
29412;SDS011;16389;50.126;8.450;2023-02-01T00:31:43;3.67;;;2.45;;
29412;SDS011;16389;50.126;8.450;2023-02-01T00:34:11;4.15;;;3.00;;
29412;SDS011;16389;50.126;8.450;2023-02-01T00:36:38;6.40;;;4.00;;
29412;SDS011;16389;50.126;8.450;2023-02-01T00:39:03;3.42;;;2.90;;
29412;SDS011;16389;50.126;8.450;2023-02-01T00:41:29;7.57;;;3.10;;
29412;SDS011;16389;50.126;8.450;2023-02-01T00:43:55;5.82;;;2.78;;
29412;SDS011;16389;50.126;8.450;2023-02-01T00:46:21;5.00;;;2.38;;
29412;SDS011;16389;50.126;8.450;2023-02-01T00:48:47;6.70;;;2.47;;
29412;SDS011;16389;50.126;8.450;2023-02-01T00:51:23;3.78;;;2.90;;
29412;SDS011;16389;50.126;8.450;2023-02-01T00:53:51;2.95;;;2.35;;
29412;SDS011;16389;50.126;8.450;2023-02-01T00:56:17;3.25;;;2.60;;
29412;SDS011;16389;50.126;8.450;2023-02-01T00:58:43;3.47;;;2.72;;
29412;SDS011;16389;50.126;8.450;2023-02-01T01:03:43;5.75;;;2.88;;
29412;SDS011;16389;50.126;8.450;2023-02-01T01:06:12;2.78;;;2.38;;
29412;SDS011;16389;50.126;8.450;2023-02-01T01:08:39;3.35;;;2.45;;
29412;SDS011;16389;50.126;8.450;2023-02-01T01:11:06;3.83;;;3.13;;
29412;SDS011;16389;50.126;8.450;2023-02-01T01:13:33;6.93;;;2.78;;
29412;SDS011;16389;50.126;8.450;2023-02-01T01:16:00;3.50;;;2.92;;
29412;SDS011;16389;50.126;8.450;2023-02-01T01:18:27;3.70;;;2.45;;
29412;SDS011;16389;50.126;8.450;2023-02-01T01:20:54;5.68;;;2.58;;
29412;SDS011;16389;50.126;8.450;2023-02-01T01:23:20;4.40;;;2.72;;
29412;SDS011;16389;50.126;8.450;2023-02-01T01:25:45;3.85;;;3.13;;
29412;SDS011;16389;50.126;8.450;2023-02-01T01:28:11;5.43;;;3.00;;
29412;SDS011;16389;50.126;8.450;2023-02-01T01:30:36;6.07;;;2.78;;
29412;SDS011;16389;50.126;8.450;2023-02-01T01:33:02;5.18;;;3.03;;
29412;SDS011;16389;50.126;8.450;2023-02-01T01:35:29;3.75;;;2.83;;
29412;SDS011;16389;50.126;8.450;2023-02-01T01:37:55;7.45;;;2.58;;
29412;SDS011;16389;50.126;8.450;2023-02-01T01:40:21;5.70;;;3.15;;
29412;SDS011;16389;50.126;8.450;2023-02-01T01:42:47;6.18;;;3.35;;
29412;SDS011;16389;50.126;8.450;2023-02-01T01:47:49;4.97;;;3.53;;
29412;SDS011;16389;50.126;8.450;2023-02-01T01:50:20;4.03;;;3.15;;
29412;SDS011;16389;50.126;8.450;2023-02-01T01:52:49;6.35;;;3.20;;
29412;SDS011;16389;50.126;8.450;2023-02-01T01:55:17;4.50;;;3.55;;
29412;SDS011;16389;50.126;8.450;2023-02-01T01:57:46;6.00;;;3.58;;
29412;SDS011;16389;50.126;8.450;2023-02-01T02:00:19;4.22;;;3.08;;
29412;SDS011;16389;50.126;8.450;2023-02-01T02:02:47;8.38;;;3.30;;
29412;SDS011;16389;50.126;8.450;2023-02-01T02:05:17;4.25;;;3.22;;
29412;SDS011;16389;50.126;8.450;2023-02-01T02:07:46;6.95;;;3.72;;
29412;SDS011;16389;50.126;8.450;2023-02-01T02:10:13;5.00;;;3.20;;
29412;SDS011;16389;50.126;8.450;2023-02-01T02:12:41;4.53;;;3.35;;
29412;SDS011;16389;50.126;8.450;2023-02-01T02:15:09;5.97;;;3.80;;
29412;SDS011;16389;50.126;8.450;2023-02-01T02:26:22;5.93;;;4.15;;
29412;SDS011;16389;50.126;8.450;2023-02-01T02:32:15;6.07;;;4.32;;
29412;SDS011;16389;50.126;8.450;2023-02-01T02:34:47;8.00;;;3.45;;
29412;SDS011;16389;50.126;8.450;2023-02-01T02:37:26;4.97;;;3.55;;
29412;SDS011;16389;50.126;8.450;2023-02-01T02:40:17;6.60;;;3.38;;
29412;SDS011;16389;50.126;8.450;2023-02-01T02:43:11;3.15;;;2.63;;
29412;SDS011;16389;50.126;8.450;2023-02-01T02:46:19;5.53;;;2.75;;
29412;SDS011;16389;50.126;8.450;2023-02-01T02:49:19;4.90;;;3.10;;
29412;SDS011;16389;50.126;8.450;2023-02-01T02:55:08;3.63;;;2.30;;
29412;SDS011;16389;50.126;8.450;2023-02-01T02:57:38;5.90;;;2.83;;
29412;SDS011;16389;50.126;8.450;2023-02-01T03:00:29;4.28;;;2.55;;
29412;SDS011;16389;50.126;8.450;2023-02-01T03:03:17;5.90;;;3.40;;
29412;SDS011;16389;50.126;8.450;2023-02-01T03:06:01;7.47;;;3.30;;
29412;SDS011;16389;50.126;8.450;2023-02-01T03:08:27;3.22;;;2.67;;
29412;SDS011;16389;50.126;8.450;2023-02-01T03:13:36;4.93;;;2.33;;
29412;SDS011;16389;50.126;8.450;2023-02-01T03:23:54;5.20;;;2.78;;
29412;SDS011;16389;50.126;8.450;2023-02-01T03:26:26;3.70;;;2.30;;
29412;SDS011;16389;50.126;8.450;2023-02-01T03:28:56;3.25;;;2.13;;
29412;SDS011;16389;50.126;8.450;2023-02-01T03:31:27;4.47;;;3.15;;
29412;SDS011;16389;50.126;8.450;2023-02-01T03:33:53;4.80;;;2.47;;
29412;SDS011;16389;50.126;8.450;2023-02-01T03:36:26;3.67;;;2.33;;
29412;SDS011;16389;50.126;8.450;2023-02-01T03:39:15;3.45;;;2.35;;
29412;SDS011;16389;50.126;8.450;2023-02-01T03:41:55;4.35;;;2.13;;
29412;SDS011;16389;50.126;8.450;2023-02-01T03:44:38;3.20;;;2.53;;
29412;SDS011;16389;50.126;8.450;2023-02-01T03:47:09;3.63;;;2.30;;
29412;SDS011;16389;50.126;8.450;2023-02-01T03:49:39;4.95;;;2.90;;
29412;SDS011;16389;50.126;8.450;2023-02-01T03:54:39;3.92;;;2.63;;
29412;SDS011;16389;50.126;8.450;2023-02-01T03:57:07;5.18;;;2.80;;
29412;SDS011;16389;50.126;8.450;2023-02-01T03:59:39;4.10;;;3.20;;
29412;SDS011;16389;50.126;8.450;2023-02-01T04:04:32;2.97;;;2.10;;
29412;SDS011;16389;50.126;8.450;2023-02-01T04:06:59;6.88;;;3.33;;
29412;SDS011;16389;50.126;8.450;2023-02-01T04:09:25;3.90;;;2.58;;
29412;SDS011;16389;50.126;8.450;2023-02-01T04:11:50;4.47;;;3.25;;
29412;SDS011;16389;50.126;8.450;2023-02-01T04:14:16;4.80;;;3.17;;
29412;SDS011;16389;50.126;8.450;2023-02-01T04:16:41;8.77;;;3.40;;
29412;SDS011;16389;50.126;8.450;2023-02-01T04:19:07;4.65;;;2.67;;
29412;SDS011;16389;50.126;8.450;2023-02-01T04:21:34;5.55;;;3.30;;
29412;SDS011;16389;50.126;8.450;2023-02-01T04:24:00;4.70;;;2.50;;
29412;SDS011;16389;50.126;8.450;2023-02-01T04:26:25;5.10;;;3.45;;
29412;SDS011;16389;50.126;8.450;2023-02-01T04:28:51;4.93;;;3.30;;
29412;SDS011;16389;50.126;8.450;2023-02-01T04:31:17;4.55;;;2.97;;
29412;SDS011;16389;50.126;8.450;2023-02-01T04:33:50;6.35;;;2.97;;
29412;SDS011;16389;50.126;8.450;2023-02-01T04:36:17;6.68;;;3.05;;
29412;SDS011;16389;50.126;8.450;2023-02-01T04:38:45;4.15;;;2.85;;
29412;SDS011;16389;50.126;8.450;2023-02-01T04:41:11;4.57;;;3.10;;
29412;SDS011;16389;50.126;8.450;2023-02-01T04:43:36;4.00;;;3.25;;
29412;SDS011;16389;50.126;8.450;2023-02-01T04:46:02;4.90;;;3.10;;
29412;SDS011;16389;50.126;8.450;2023-02-01T04:48:28;7.18;;;3.72;;
29412;SDS011;16389;50.126;8.450;2023-02-01T04:50:53;5.38;;;2.90;;
29412;SDS011;16389;50.126;8.450;2023-02-01T04:53:19;4.68;;;3.00;;
29412;SDS011;16389;50.126;8.450;2023-02-01T04:55:44;4.13;;;2.67;;
29412;SDS011;16389;50.126;8.450;2023-02-01T04:58:13;7.28;;;2.80;;
29412;SDS011;16389;50.126;8.450;2023-02-01T05:00:38;5.05;;;3.40;;
29412;SDS011;16389;50.126;8.450;2023-02-01T05:03:04;4.57;;;3.35;;
29412;SDS011;16389;50.126;8.450;2023-02-01T05:05:30;4.20;;;3.03;;
29412;SDS011;16389;50.126;8.450;2023-02-01T05:07:55;8.55;;;3.08;;
29412;SDS011;16389;50.126;8.450;2023-02-01T05:10:21;3.42;;;2.70;;
29412;SDS011;16389;50.126;8.450;2023-02-01T05:12:47;4.70;;;2.42;;
29412;SDS011;16389;50.126;8.450;2023-02-01T05:15:31;3.45;;;2.50;;
29412;SDS011;16389;50.126;8.450;2023-02-01T05:17:57;3.92;;;2.00;;
29412;SDS011;16389;50.126;8.450;2023-02-01T05:20:23;4.40;;;1.98;;
29412;SDS011;16389;50.126;8.450;2023-02-01T05:22:49;4.05;;;1.88;;
29412;SDS011;16389;50.126;8.450;2023-02-01T05:25:15;3.08;;;2.25;;
29412;SDS011;16389;50.126;8.450;2023-02-01T05:27:41;6.63;;;2.58;;
29412;SDS011;16389;50.126;8.450;2023-02-01T05:30:07;6.97;;;2.88;;
29412;SDS011;16389;50.126;8.450;2023-02-01T05:32:33;4.07;;;2.20;;
29412;SDS011;16389;50.126;8.450;2023-02-01T05:34:59;4.57;;;2.08;;
29412;SDS011;16389;50.126;8.450;2023-02-01T05:37:25;6.53;;;2.13;;
29412;SDS011;16389;50.126;8.450;2023-02-01T05:39:51;5.60;;;2.38;;
29412;SDS011;16389;50.126;8.450;2023-02-01T05:42:16;3.83;;;1.65;;
29412;SDS011;16389;50.126;8.450;2023-02-01T05:44:42;8.20;;;2.00;;
29412;SDS011;16389;50.126;8.450;2023-02-01T05:47:08;4.65;;;2.30;;
29412;SDS011;16389;50.126;8.450;2023-02-01T05:49:34;3.53;;;1.65;;
29412;SDS011;16389;50.126;8.450;2023-02-01T05:51:59;2.35;;;1.85;;
29412;SDS011;16389;50.126;8.450;2023-02-01T05:54:25;4.75;;;1.95;;
29412;SDS011;16389;50.126;8.450;2023-02-01T05:56:51;3.03;;;1.80;;
29412;SDS011;16389;50.126;8.450;2023-02-01T05:59:16;10.20;;;1.63;;
29412;SDS011;16389;50.126;8.450;2023-02-01T06:01:42;4.65;;;1.55;;
29412;SDS011;16389;50.126;8.450;2023-02-01T06:04:07;3.92;;;2.42;;
29412;SDS011;16389;50.126;8.450;2023-02-01T06:06:33;6.25;;;2.28;;
29412;SDS011;16389;50.126;8.450;2023-02-01T06:08:59;4.18;;;2.13;;
29412;SDS011;16389;50.126;8.450;2023-02-01T06:11:25;9.50;;;1.85;;
29412;SDS011;16389;50.126;8.450;2023-02-01T06:13:50;7.32;;;1.85;;
29412;SDS011;16389;50.126;8.450;2023-02-01T06:16:16;3.55;;;1.35;;
29412;SDS011;16389;50.126;8.450;2023-02-01T06:18:42;3.58;;;1.33;;
29412;SDS011;16389;50.126;8.450;2023-02-01T06:21:08;2.85;;;1.85;;
29412;SDS011;16389;50.126;8.450;2023-02-01T06:23:34;4.03;;;2.33;;
29412;SDS011;16389;50.126;8.450;2023-02-01T06:26:04;7.70;;;1.50;;
29412;SDS011;16389;50.126;8.450;2023-02-01T06:28:33;7.40;;;2.17;;
29412;SDS011;16389;50.126;8.450;2023-02-01T06:31:05;3.90;;;1.92;;
29412;SDS011;16389;50.126;8.450;2023-02-01T06:33:34;6.38;;;2.10;;
29412;SDS011;16389;50.126;8.450;2023-02-01T06:36:00;2.03;;;1.48;;
29412;SDS011;16389;50.126;8.450;2023-02-01T06:38:28;7.32;;;2.08;;
29412;SDS011;16389;50.126;8.450;2023-02-01T06:40:55;7.15;;;1.80;;
29412;SDS011;16389;50.126;8.450;2023-02-01T06:43:23;5.22;;;1.88;;
29412;SDS011;16389;50.126;8.450;2023-02-01T06:45:50;4.13;;;1.50;;
29412;SDS011;16389;50.126;8.450;2023-02-01T06:48:16;8.35;;;2.40;;
29412;SDS011;16389;50.126;8.450;2023-02-01T06:50:42;3.55;;;1.77;;
29412;SDS011;16389;50.126;8.450;2023-02-01T06:53:08;8.57;;;2.05;;
29412;SDS011;16389;50.126;8.450;2023-02-01T06:55:33;4.30;;;1.92;;
29412;SDS011;16389;50.126;8.450;2023-02-01T06:57:59;3.38;;;1.65;;
29412;SDS011;16389;50.126;8.450;2023-02-01T07:00:26;8.35;;;2.85;;
29412;SDS011;16389;50.126;8.450;2023-02-01T07:02:51;6.07;;;2.28;;
29412;SDS011;16389;50.126;8.450;2023-02-01T07:05:17;5.43;;;1.58;;
29412;SDS011;16389;50.126;8.450;2023-02-01T07:07:43;2.42;;;1.52;;
29412;SDS011;16389;50.126;8.450;2023-02-01T07:10:09;5.40;;;1.58;;
29412;SDS011;16389;50.126;8.450;2023-02-01T07:12:35;9.15;;;1.77;;
29412;SDS011;16389;50.126;8.450;2023-02-01T07:15:00;3.42;;;1.73;;
29412;SDS011;16389;50.126;8.450;2023-02-01T07:17:27;2.55;;;1.60;;
29412;SDS011;16389;50.126;8.450;2023-02-01T07:19:54;4.70;;;2.15;;
29412;SDS011;16389;50.126;8.450;2023-02-01T07:22:20;5.28;;;1.50;;
29412;SDS011;16389;50.126;8.450;2023-02-01T07:24:46;9.73;;;1.95;;
29412;SDS011;16389;50.126;8.450;2023-02-01T07:27:12;4.90;;;1.70;;
29412;SDS011;16389;50.126;8.450;2023-02-01T07:29:37;7.32;;;1.92;;
29412;SDS011;16389;50.126;8.450;2023-02-01T07:32:03;11.77;;;2.10;;
29412;SDS011;16389;50.126;8.450;2023-02-01T07:34:29;3.85;;;1.60;;
29412;SDS011;16389;50.126;8.450;2023-02-01T07:36:55;9.15;;;1.63;;
29412;SDS011;16389;50.126;8.450;2023-02-01T07:39:21;7.20;;;2.38;;
29412;SDS011;16389;50.126;8.450;2023-02-01T07:41:47;6.47;;;1.45;;
29412;SDS011;16389;50.126;8.450;2023-02-01T07:44:12;5.80;;;1.63;;
29412;SDS011;16389;50.126;8.450;2023-02-01T07:46:38;9.63;;;1.42;;
29412;SDS011;16389;50.126;8.450;2023-02-01T07:49:04;6.13;;;2.00;;
29412;SDS011;16389;50.126;8.450;2023-02-01T07:51:30;2.22;;;1.40;;
29412;SDS011;16389;50.126;8.450;2023-02-01T07:53:56;3.95;;;1.40;;
29412;SDS011;16389;50.126;8.450;2023-02-01T07:56:21;4.13;;;1.63;;
29412;SDS011;16389;50.126;8.450;2023-02-01T07:58:51;3.08;;;1.40;;
29412;SDS011;16389;50.126;8.450;2023-02-01T08:01:20;3.40;;;1.70;;
29412;SDS011;16389;50.126;8.450;2023-02-01T08:03:52;2.92;;;1.73;;
29412;SDS011;16389;50.126;8.450;2023-02-01T08:06:19;4.95;;;1.80;;
29412;SDS011;16389;50.126;8.450;2023-02-01T08:08:46;8.88;;;2.47;;
29412;SDS011;16389;50.126;8.450;2023-02-01T08:11:13;7.13;;;1.40;;
29412;SDS011;16389;50.126;8.450;2023-02-01T08:13:40;5.53;;;2.45;;
29412;SDS011;16389;50.126;8.450;2023-02-01T08:16:06;6.00;;;1.60;;
29412;SDS011;16389;50.126;8.450;2023-02-01T08:18:33;7.85;;;1.50;;
29412;SDS011;16389;50.126;8.450;2023-02-01T08:21:07;3.67;;;1.38;;
29412;SDS011;16389;50.126;8.450;2023-02-01T08:23:35;3.45;;;1.48;;
29412;SDS011;16389;50.126;8.450;2023-02-01T08:28:30;4.03;;;1.55;;
29412;SDS011;16389;50.126;8.450;2023-02-01T08:30:56;4.53;;;1.20;;
29412;SDS011;16389;50.126;8.450;2023-02-01T08:33:21;7.20;;;1.73;;
29412;SDS011;16389;50.126;8.450;2023-02-01T08:35:47;4.43;;;1.27;;
29412;SDS011;16389;50.126;8.450;2023-02-01T08:38:13;1.45;;;1.10;;
29412;SDS011;16389;50.126;8.450;2023-02-01T08:40:39;4.57;;;1.67;;
29412;SDS011;16389;50.126;8.450;2023-02-01T08:43:06;6.45;;;1.90;;
29412;SDS011;16389;50.126;8.450;2023-02-01T08:45:32;4.03;;;1.52;;
29412;SDS011;16389;50.126;8.450;2023-02-01T08:47:58;2.75;;;1.23;;
29412;SDS011;16389;50.126;8.450;2023-02-01T08:50:25;4.20;;;1.65;;
29412;SDS011;16389;50.126;8.450;2023-02-01T08:52:51;4.13;;;1.30;;
29412;SDS011;16389;50.126;8.450;2023-02-01T08:55:18;3.33;;;1.30;;
29412;SDS011;16389;50.126;8.450;2023-02-01T08:57:44;2.20;;;1.10;;
29412;SDS011;16389;50.126;8.450;2023-02-01T09:00:14;3.80;;;1.13;;
29412;SDS011;16389;50.126;8.450;2023-02-01T09:02:42;2.45;;;1.20;;
29412;SDS011;16389;50.126;8.450;2023-02-01T09:05:08;5.35;;;1.50;;
29412;SDS011;16389;50.126;8.450;2023-02-01T09:07:34;7.18;;;1.60;;
29412;SDS011;16389;50.126;8.450;2023-02-01T09:10:00;2.47;;;1.40;;
29412;SDS011;16389;50.126;8.450;2023-02-01T09:12:27;8.55;;;1.33;;
29412;SDS011;16389;50.126;8.450;2023-02-01T09:14:55;3.33;;;2.75;;
29412;SDS011;16389;50.126;8.450;2023-02-01T09:17:21;4.35;;;1.20;;
29412;SDS011;16389;50.126;8.450;2023-02-01T09:19:48;6.95;;;1.35;;
29412;SDS011;16389;50.126;8.450;2023-02-01T09:22:14;3.00;;;1.20;;
29412;SDS011;16389;50.126;8.450;2023-02-01T09:24:41;3.08;;;1.30;;
29412;SDS011;16389;50.126;8.450;2023-02-01T09:27:06;2.67;;;1.40;;
29412;SDS011;16389;50.126;8.450;2023-02-01T09:29:32;4.60;;;1.25;;
29412;SDS011;16389;50.126;8.450;2023-02-01T09:31:57;6.65;;;1.38;;
29412;SDS011;16389;50.126;8.450;2023-02-01T09:34:23;1.23;;;0.90;;
29412;SDS011;16389;50.126;8.450;2023-02-01T09:36:49;4.03;;;1.27;;
29412;SDS011;16389;50.126;8.450;2023-02-01T09:39:15;8.88;;;1.50;;
29412;SDS011;16389;50.126;8.450;2023-02-01T09:47:20;3.20;;;1.40;;
29412;SDS011;16389;50.126;8.450;2023-02-01T09:49:54;7.28;;;1.20;;
29412;SDS011;16389;50.126;8.450;2023-02-01T09:52:23;4.13;;;1.63;;
29412;SDS011;16389;50.126;8.450;2023-02-01T09:54:55;3.85;;;1.40;;
29412;SDS011;16389;50.126;8.450;2023-02-01T09:57:40;7.30;;;1.33;;
29412;SDS011;16389;50.126;8.450;2023-02-01T10:00:17;5.90;;;1.02;;
29412;SDS011;16389;50.126;8.450;2023-02-01T10:02:46;2.08;;;1.40;;
29412;SDS011;16389;50.126;8.450;2023-02-01T10:05:13;2.97;;;1.90;;
29412;SDS011;16389;50.126;8.450;2023-02-01T10:21:56;11.35;;;1.60;;
29412;SDS011;16389;50.126;8.450;2023-02-01T10:24:47;6.88;;;1.33;;
29412;SDS011;16389;50.126;8.450;2023-02-01T10:27:27;1.98;;;1.02;;
29412;SDS011;16389;50.126;8.450;2023-02-01T10:29:59;5.55;;;1.20;;
29412;SDS011;16389;50.126;8.450;2023-02-01T10:32:33;4.70;;;1.38;;
29412;SDS011;16389;50.126;8.450;2023-02-01T10:35:18;4.00;;;1.00;;
29412;SDS011;16389;50.126;8.450;2023-02-01T10:37:53;8.48;;;1.67;;
29412;SDS011;16389;50.126;8.450;2023-02-01T10:42:47;3.70;;;1.50;;
29412;SDS011;16389;50.126;8.450;2023-02-01T10:45:19;3.20;;;1.20;;
29412;SDS011;16389;50.126;8.450;2023-02-01T10:47:48;3.15;;;1.05;;
29412;SDS011;16389;50.126;8.450;2023-02-01T10:53:15;4.95;;;1.20;;
29412;SDS011;16389;50.126;8.450;2023-02-01T10:58:29;2.58;;;1.13;;
29412;SDS011;16389;50.126;8.450;2023-02-01T11:00:58;7.65;;;1.48;;
29412;SDS011;16389;50.126;8.450;2023-02-01T11:03:33;5.65;;;1.25;;
29412;SDS011;16389;50.126;8.450;2023-02-01T11:06:08;1.63;;;1.20;;
29412;SDS011;16389;50.126;8.450;2023-02-01T11:08:41;5.70;;;1.17;;
29412;SDS011;16389;50.126;8.450;2023-02-01T11:11:11;3.30;;;1.17;;
29412;SDS011;16389;50.126;8.450;2023-02-01T11:13:37;6.18;;;1.23;;
29412;SDS011;16389;50.126;8.450;2023-02-01T11:16:04;4.97;;;1.13;;
29412;SDS011;16389;50.126;8.450;2023-02-01T11:18:36;4.35;;;1.42;;
29412;SDS011;16389;50.126;8.450;2023-02-01T11:21:04;6.35;;;1.15;;
29412;SDS011;16389;50.126;8.450;2023-02-01T11:23:31;1.65;;;0.90;;
29412;SDS011;16389;50.126;8.450;2023-02-01T11:26:07;1.92;;;1.23;;
29412;SDS011;16389;50.126;8.450;2023-02-01T11:28:47;7.32;;;1.20;;
29412;SDS011;16389;50.126;8.450;2023-02-01T11:31:18;7.53;;;1.25;;
29412;SDS011;16389;50.126;8.450;2023-02-01T11:33:48;2.17;;;1.20;;
29412;SDS011;16389;50.126;8.450;2023-02-01T11:36:20;4.95;;;0.90;;
29412;SDS011;16389;50.126;8.450;2023-02-01T11:38:54;2.25;;;0.88;;
29412;SDS011;16389;50.126;8.450;2023-02-01T11:42:00;8.38;;;1.60;;
29412;SDS011;16389;50.126;8.450;2023-02-01T11:44:37;1.58;;;0.80;;
29412;SDS011;16389;50.126;8.450;2023-02-01T11:49:45;4.30;;;1.13;;
29412;SDS011;16389;50.126;8.450;2023-02-01T11:52:14;5.32;;;1.25;;
29412;SDS011;16389;50.126;8.450;2023-02-01T12:08:24;4.40;;;1.08;;
29412;SDS011;16389;50.126;8.450;2023-02-01T12:10:55;1.63;;;1.33;;
29412;SDS011;16389;50.126;8.450;2023-02-01T12:19:11;4.20;;;0.98;;
29412;SDS011;16389;50.126;8.450;2023-02-01T12:39:23;6.10;;;0.90;;
29412;SDS011;16389;50.126;8.450;2023-02-01T12:41:54;5.68;;;1.50;;
29412;SDS011;16389;50.126;8.450;2023-02-01T12:49:49;3.63;;;1.15;;
29412;SDS011;16389;50.126;8.450;2023-02-01T12:52:30;5.43;;;1.70;;
29412;SDS011;16389;50.126;8.450;2023-02-01T12:55:15;6.47;;;1.13;;
29412;SDS011;16389;50.126;8.450;2023-02-01T12:57:52;4.43;;;1.17;;
29412;SDS011;16389;50.126;8.450;2023-02-01T13:05:48;3.28;;;1.00;;
29412;SDS011;16389;50.126;8.450;2023-02-01T13:08:16;7.07;;;1.05;;
29412;SDS011;16389;50.126;8.450;2023-02-01T13:10:50;2.88;;;0.93;;
29412;SDS011;16389;50.126;8.450;2023-02-01T13:13:49;3.63;;;1.30;;
29412;SDS011;16389;50.126;8.450;2023-02-01T13:16:24;4.75;;;1.17;;
29412;SDS011;16389;50.126;8.450;2023-02-01T13:19:06;3.10;;;1.92;;
29412;SDS011;16389;50.126;8.450;2023-02-01T13:21:38;2.35;;;1.05;;
29412;SDS011;16389;50.126;8.450;2023-02-01T13:24:14;1.90;;;1.10;;
29412;SDS011;16389;50.126;8.450;2023-02-01T13:26:48;6.03;;;1.23;;
29412;SDS011;16389;50.126;8.450;2023-02-01T13:29:13;2.45;;;1.25;;
29412;SDS011;16389;50.126;8.450;2023-02-01T13:31:52;6.43;;;2.00;;
29412;SDS011;16389;50.126;8.450;2023-02-01T13:34:45;1.25;;;0.85;;
29412;SDS011;16389;50.126;8.450;2023-02-01T13:40:44;3.42;;;0.88;;
29412;SDS011;16389;50.126;8.450;2023-02-01T13:43:23;1.88;;;0.88;;
29412;SDS011;16389;50.126;8.450;2023-02-01T13:45:54;3.72;;;1.10;;
29412;SDS011;16389;50.126;8.450;2023-02-01T13:48:28;2.75;;;0.98;;
29412;SDS011;16389;50.126;8.450;2023-02-01T13:51:00;10.38;;;0.95;;
29412;SDS011;16389;50.126;8.450;2023-02-01T13:53:36;4.22;;;0.95;;
29412;SDS011;16389;50.126;8.450;2023-02-01T13:56:11;3.53;;;1.00;;
29412;SDS011;16389;50.126;8.450;2023-02-01T13:58:43;2.10;;;0.90;;
29412;SDS011;16389;50.126;8.450;2023-02-01T14:03:55;1.88;;;0.93;;
29412;SDS011;16389;50.126;8.450;2023-02-01T14:14:52;1.40;;;0.95;;
29412;SDS011;16389;50.126;8.450;2023-02-01T14:19:25;5.15;;;0.82;;
29412;SDS011;16389;50.126;8.450;2023-02-01T14:21:54;7.00;;;0.90;;
29412;SDS011;16389;50.126;8.450;2023-02-01T14:24:29;1.95;;;0.80;;
29412;SDS011;16389;50.126;8.450;2023-02-01T14:26:59;3.25;;;0.88;;
29412;SDS011;16389;50.126;8.450;2023-02-01T14:29:34;7.97;;;1.03;;
29412;SDS011;16389;50.126;8.450;2023-02-01T15:00:53;6.30;;;1.30;;
29412;SDS011;16389;50.126;8.450;2023-02-01T15:03:29;7.22;;;0.90;;
29412;SDS011;16389;50.126;8.450;2023-02-01T15:05:59;9.07;;;1.88;;
29412;SDS011;16389;50.126;8.450;2023-02-01T15:08:32;3.42;;;0.93;;
29412;SDS011;16389;50.126;8.450;2023-02-01T15:11:01;1.30;;;0.80;;
29412;SDS011;16389;50.126;8.450;2023-02-01T15:13:31;2.85;;;1.05;;
29412;SDS011;16389;50.126;8.450;2023-02-01T15:16:04;8.70;;;1.00;;
29412;SDS011;16389;50.126;8.450;2023-02-01T15:18:33;4.30;;;1.38;;
29412;SDS011;16389;50.126;8.450;2023-02-01T15:20:59;2.05;;;0.85;;
29412;SDS011;16389;50.126;8.450;2023-02-01T15:23:26;9.35;;;2.17;;
29412;SDS011;16389;50.126;8.450;2023-02-01T15:25:52;2.95;;;0.85;;
29412;SDS011;16389;50.126;8.450;2023-02-01T15:28:18;3.80;;;1.38;;
29412;SDS011;16389;50.126;8.450;2023-02-01T15:31:03;6.88;;;1.00;;
29412;SDS011;16389;50.126;8.450;2023-02-01T15:33:30;1.92;;;0.88;;
29412;SDS011;16389;50.126;8.450;2023-02-01T15:38:33;7.55;;;1.20;;
29412;SDS011;16389;50.126;8.450;2023-02-01T15:41:07;5.53;;;0.88;;
29412;SDS011;16389;50.126;8.450;2023-02-01T15:43:36;3.03;;;1.02;;
29412;SDS011;16389;50.126;8.450;2023-02-01T15:46:21;2.13;;;0.90;;
29412;SDS011;16389;50.126;8.450;2023-02-01T15:48:50;3.25;;;0.68;;
29412;SDS011;16389;50.126;8.450;2023-02-01T15:51:23;4.35;;;1.23;;
29412;SDS011;16389;50.126;8.450;2023-02-01T15:53:52;3.70;;;1.70;;
29412;SDS011;16389;50.126;8.450;2023-02-01T15:56:27;8.90;;;1.00;;
29412;SDS011;16389;50.126;8.450;2023-02-01T15:58:58;1.02;;;0.88;;
29412;SDS011;16389;50.126;8.450;2023-02-01T16:01:26;2.90;;;1.48;;
29412;SDS011;16389;50.126;8.450;2023-02-01T16:06:55;1.75;;;0.75;;
29412;SDS011;16389;50.126;8.450;2023-02-01T16:09:23;2.13;;;1.35;;
29412;SDS011;16389;50.126;8.450;2023-02-01T16:12:00;3.33;;;0.82;;
29412;SDS011;16389;50.126;8.450;2023-02-01T16:14:26;1.27;;;0.70;;
29412;SDS011;16389;50.126;8.450;2023-02-01T16:16:53;3.45;;;0.85;;
29412;SDS011;16389;50.126;8.450;2023-02-01T16:19:20;0.82;;;0.65;;
29412;SDS011;16389;50.126;8.450;2023-02-01T16:21:49;2.38;;;0.88;;
29412;SDS011;16389;50.126;8.450;2023-02-01T16:24:14;1.98;;;0.80;;
29412;SDS011;16389;50.126;8.450;2023-02-01T16:26:40;5.03;;;0.95;;
29412;SDS011;16389;50.126;8.450;2023-02-01T16:29:05;1.42;;;0.93;;
29412;SDS011;16389;50.126;8.450;2023-02-01T16:31:32;4.88;;;1.00;;
29412;SDS011;16389;50.126;8.450;2023-02-01T16:34:00;3.75;;;0.80;;
29412;SDS011;16389;50.126;8.450;2023-02-01T16:36:26;2.45;;;0.80;;
29412;SDS011;16389;50.126;8.450;2023-02-01T16:38:53;6.38;;;1.38;;
29412;SDS011;16389;50.126;8.450;2023-02-01T16:41:20;2.83;;;0.70;;
29412;SDS011;16389;50.126;8.450;2023-02-01T16:43:51;1.17;;;0.80;;
29412;SDS011;16389;50.126;8.450;2023-02-01T16:46:19;6.63;;;1.65;;
29412;SDS011;16389;50.126;8.450;2023-02-01T16:48:57;6.93;;;1.83;;
29412;SDS011;16389;50.126;8.450;2023-02-01T16:51:29;1.90;;;0.73;;
29412;SDS011;16389;50.126;8.450;2023-02-01T16:53:57;2.90;;;0.93;;
29412;SDS011;16389;50.126;8.450;2023-02-01T16:56:31;3.08;;;1.27;;
29412;SDS011;16389;50.126;8.450;2023-02-01T16:58:58;1.27;;;0.68;;
29412;SDS011;16389;50.126;8.450;2023-02-01T17:01:24;4.10;;;0.93;;
29412;SDS011;16389;50.126;8.450;2023-02-01T17:03:50;3.33;;;1.00;;
29412;SDS011;16389;50.126;8.450;2023-02-01T17:06:18;6.13;;;0.93;;
29412;SDS011;16389;50.126;8.450;2023-02-01T17:08:52;13.38;;;1.65;;
29412;SDS011;16389;50.126;8.450;2023-02-01T17:11:19;1.90;;;0.98;;
29412;SDS011;16389;50.126;8.450;2023-02-01T17:13:46;5.03;;;1.15;;
29412;SDS011;16389;50.126;8.450;2023-02-01T17:18:43;2.20;;;0.90;;
29412;SDS011;16389;50.126;8.450;2023-02-01T17:21:12;4.95;;;0.98;;
29412;SDS011;16389;50.126;8.450;2023-02-01T17:23:37;4.95;;;1.00;;
29412;SDS011;16389;50.126;8.450;2023-02-01T17:26:03;2.15;;;1.00;;
29412;SDS011;16389;50.126;8.450;2023-02-01T17:28:29;3.10;;;0.88;;
29412;SDS011;16389;50.126;8.450;2023-02-01T17:30:54;9.45;;;1.20;;
29412;SDS011;16389;50.126;8.450;2023-02-01T17:33:28;3.60;;;0.80;;
29412;SDS011;16389;50.126;8.450;2023-02-01T17:35:56;5.60;;;1.10;;
29412;SDS011;16389;50.126;8.450;2023-02-01T17:38:22;1.80;;;0.73;;
29412;SDS011;16389;50.126;8.450;2023-02-01T17:40:48;3.38;;;0.90;;
29412;SDS011;16389;50.126;8.450;2023-02-01T17:43:15;7.45;;;1.15;;
29412;SDS011;16389;50.126;8.450;2023-02-01T17:45:47;5.15;;;1.42;;
29412;SDS011;16389;50.126;8.450;2023-02-01T17:48:17;5.15;;;1.08;;
29412;SDS011;16389;50.126;8.450;2023-02-01T17:50:47;3.63;;;0.98;;